Spanish Flat, California
Current Conditions -  °F | °C
As of 11:16 AM on Friday 28 Nov 2014 (Local Time) from KAPC Reporting Station
Haze Haze  
Wind Chill: 50°   Ceiling: 700
Heat Index: 50°   Visibility: 1.2mi
Dew Point: 49°   Wind: 3mph
Humidity: 96%   Direction: 190°S
Pressure: 30.01"   Gusts: NA
Location:  38.3929°N, 122.291°W
Report Text: KAPC 281916Z AUTO 19003KT 1 1/4SM BR SCT003 BKN007 10/09 A3001 RMK AO2 VIS 1/2V4 T01000094
Loading
Personal Weather Stations






























Interactive Weather Map New forecast layout! Learn more

10-Day Weather Forecast

Advertisements
Track Severe Weather on mobile